Time;durP1;ratioP1;P1;durP2;ratioP2;P2;SDS_P1;SDS_P2;PMS_P1;PMS_P2;Temp;Humidity;BMP_temperature;BMP_pressure;BME280_temperature;BME280_humidity;BME280_pressure;Samples;Min_cycle;Max_cycle;Signal;HPM_P1;HPM_P2
2022/09/15 00:01:46;;;;;;;;;;;;;;;22.65;53.47;94812.41;10461785;28;2072;-47
2022/09/15 00:06:46;;;;;;;;;;;;;;;22.64;53.26;94805.56;10457629;28;2158;-47
2022/09/15 00:11:47;;;;;;;;;;;;;;;22.64;53.28;94801.06;10455605;28;2011;-48
2022/09/15 00:16:47;;;;;;;;;;;;;;;22.63;53.13;94794.22;10454615;28;2062;-48
2022/09/15 00:21:47;;;;;;;;;;;;;;;22.63;53.00;94786.31;10460831;28;2068;-48
2022/09/15 00:26:48;;;;;;;;;;;;;;;22.63;53.29;94781.00;10458342;28;2024;-47
2022/09/15 00:31:48;;;;;;;;;;;;;;;22.63;53.32;94781.00;10455003;28;2069;-48
2022/09/15 00:36:48;;;;;;;;;;;;;;;22.64;53.18;94773.88;10454752;28;2061;-48
2022/09/15 00:41:48;;;;;;;;;;;;;;;22.62;53.00;94766.28;10472312;28;2125;-48
2022/09/15 00:46:50;;;;;;;;;;;;;;;22.62;52.69;94770.75;10459642;28;2042;-47
2022/09/15 00:51:56;;;;;;;;;;;;;;;22.61;52.67;94762.06;10491873;28;2013;-48
2022/09/15 00:56:57;;;;;;;;;;;;;;;22.61;52.48;94759.41;10495220;28;2141;-48
2022/09/15 01:02:00;;;;;;;;;;;;;;;22.60;52.60;94752.59;10498107;28;1993;-48
2022/09/15 01:07:01;;;;;;;;;;;;;;;22.60;52.56;94744.66;10484399;28;2009;-48
2022/09/15 01:12:02;;;;;;;;;;;;;;;22.61;52.47;94753.34;10457020;28;2072;-47
2022/09/15 01:17:11;;;;;;;;;;;;;;;22.61;52.77;94753.34;10466371;28;2124;-48
2022/09/15 01:22:30;;;;;;;;;;;;;;;22.61;52.75;94742.78;10453353;28;2081;-47
2022/09/15 01:27:30;;;;;;;;;;;;;;;22.61;52.96;94748.06;10465917;28;2061;-48
2022/09/15 01:38:25;;;;;;;;;;;;;;;22.61;52.75;94742.78;10486618;28;2091;-48
2022/09/15 01:43:26;;;;;;;;;;;;;;;22.61;52.96;94748.06;10469781;28;2094;-48
2022/09/15 01:48:26;;;;;;;;;;;;;;;22.60;52.84;94747.31;10454502;28;2312;-48
2022/09/15 01:53:26;;;;;;;;;;;;;;;22.59;52.84;94743.09;10490754;28;1977;-48
2022/09/15 01:58:27;;;;;;;;;;;;;;;22.60;52.63;94735.97;10499608;28;2010;-48
2022/09/15 02:03:32;;;;;;;;;;;;;;;22.58;52.36;94736.28;10487523;28;2027;-47
2022/09/15 02:08:36;;;;;;;;;;;;;;;22.58;52.72;94744.19;10462160;28;2406;-48
2022/09/15 02:13:55;;;;;;;;;;;;;;;22.57;52.72;94745.25;10463287;28;2002;-47
2022/09/15 02:19:02;;;;;;;;;;;;;;;22.57;52.23;94739.97;10471678;28;1979;-48
2022/09/15 02:24:07;;;;;;;;;;;;;;;22.57;52.25;94741.81;10487822;28;2130;-47
2022/09/15 02:29:08;;;;;;;;;;;;;;;22.57;52.32;94733.91;10466459;28;2023;-48
2022/09/15 02:34:16;;;;;;;;;;;;;;;22.56;51.83;94735.78;10443893;28;2066;-47
2022/09/15 02:39:18;;;;;;;;;;;;;;;22.55;52.35;94733.44;10462779;28;2006;-48
2022/09/15 02:44:18;;;;;;;;;;;;;;;22.55;52.54;94742.13;10457692;28;2168;-48
2022/09/15 02:49:19;;;;;;;;;;;;;;;22.55;52.14;94725.50;10461246;28;2045;-48
2022/09/15 02:54:19;;;;;;;;;;;;;;;22.54;52.00;94735.31;10442904;28;2364;-47
2022/09/15 02:59:20;;;;;;;;;;;;;;;22.54;52.02;94727.38;10482601;28;2123;-47
2022/09/15 03:04:20;;;;;;;;;;;;;;;22.54;52.18;94737.16;10461579;28;2090;-48
2022/09/15 03:09:21;;;;;;;;;;;;;;;22.53;51.69;94733.75;10480068;28;2035;-47
2022/09/15 03:14:26;;;;;;;;;;;;;;;22.53;52.22;94736.38;10463175;28;2046;-47
2022/09/15 03:19:27;;;;;;;;;;;;;;;22.54;52.14;94737.97;10463115;28;2050;-47
2022/09/15 03:24:28;;;;;;;;;;;;;;;22.52;51.96;94736.72;10458626;28;2414;-48
2022/09/15 03:29:29;;;;;;;;;;;;;;;22.53;51.79;94751.44;10494169;28;2109;-48
2022/09/15 03:34:30;;;;;;;;;;;;;;;22.52;51.87;94742.00;10460937;28;2051;-47
2022/09/15 03:39:31;;;;;;;;;;;;;;;22.52;51.62;94736.72;10458707;28;2162;-47
2022/09/15 03:44:31;;;;;;;;;;;;;;;22.52;51.92;94740.09;10459363;28;2304;-48
2022/09/15 03:49:32;;;;;;;;;;;;;;;22.51;51.93;94733.28;10494755;28;2011;-47
2022/09/15 03:54:34;;;;;;;;;;;;;;;22.51;52.05;94735.13;10460423;28;2046;-48
2022/09/15 03:59:34;;;;;;;;;;;;;;;22.50;51.79;94738.88;10466419;28;1985;-47
2022/09/15 04:04:35;;;;;;;;;;;;;;;22.51;51.73;94743.84;10455195;28;2400;-48
2022/09/15 04:09:36;;;;;;;;;;;;;;;22.50;51.63;94737.00;10463071;28;2087;-47
2022/09/15 04:14:36;;;;;;;;;;;;;;;22.51;51.96;94737.78;10467909;28;2153;-47
2022/09/15 04:19:37;;;;;;;;;;;;;;;22.49;51.74;94738.09;10463704;28;2049;-48
2022/09/15 04:24:37;;;;;;;;;;;;;;;22.49;51.53;94732.81;10468415;28;2019;-47
2022/09/15 04:29:38;;;;;;;;;;;;;;;22.49;51.76;94732.81;10476638;28;2061;-47
2022/09/15 04:34:38;;;;;;;;;;;;;;;22.49;51.54;94730.19;10469310;28;2073;-47
2022/09/15 04:39:39;;;;;;;;;;;;;;;22.49;51.64;94716.97;10470187;28;2067;-47
2022/09/15 04:44:40;;;;;;;;;;;;;;;22.49;51.15;94708.25;10458905;28;2060;-47
2022/09/15 04:49:40;;;;;;;;;;;;;;;22.48;51.14;94707.47;10466051;28;2114;-48
2022/09/15 04:54:41;;;;;;;;;;;;;;;22.47;51.26;94705.16;10488459;28;2022;-48
2022/09/15 04:59:41;;;;;;;;;;;;;;;22.48;51.49;94702.19;10466032;28;2035;-47
2022/09/15 05:04:42;;;;;;;;;;;;;;;22.48;51.37;94698.81;10486430;28;1994;-47
2022/09/15 05:09:43;;;;;;;;;;;;;;;22.47;51.30;94695.38;10464489;28;2027;-48
2022/09/15 05:14:43;;;;;;;;;;;;;;;22.47;51.07;94700.66;10467049;28;2059;-48
2022/09/15 05:19:45;;;;;;;;;;;;;;;22.47;51.12;94708.56;10460030;28;2071;-47
2022/09/15 05:24:45;;;;;;;;;;;;;;;22.47;50.87;94705.16;10460497;28;2003;-47
2022/09/15 05:29:45;;;;;;;;;;;;;;;22.47;50.79;94724.44;10465827;28;2026;-47
2022/09/15 05:34:46;;;;;;;;;;;;;;;22.47;50.85;94727.06;10461652;28;2082;-47
2022/09/15 05:39:46;;;;;;;;;;;;;;;22.48;51.05;94720.69;10457354;28;2035;-47
2022/09/15 05:44:47;;;;;;;;;;;;;;;22.48;50.54;94727.84;10457626;28;2073;-48
2022/09/15 05:49:47;;;;;;;;;;;;;;;22.48;51.06;94733.88;10462070;28;2026;-48
2022/09/15 05:54:48;;;;;;;;;;;;;;;22.48;50.91;94727.84;10480482;28;2028;-48
2022/09/15 05:59:49;;;;;;;;;;;;;;;22.47;51.04;94727.06;10456581;28;2541;-48
2022/09/15 06:04:50;;;;;;;;;;;;;;;22.47;50.54;94731.56;10454421;28;2069;-48
2022/09/15 06:09:51;;;;;;;;;;;;;;;22.46;50.73;94736.06;10487993;28;2046;-47
2022/09/15 06:14:52;;;;;;;;;;;;;;;22.46;50.93;94741.34;10468844;28;2070;-45
2022/09/15 06:19:52;;;;;;;;;;;;;;;22.47;50.82;94748.19;10457659;28;2039;-48
2022/09/15 06:24:52;;;;;;;;;;;;;;;22.48;50.79;94738.41;10452368;28;2430;-47
2022/09/15 06:29:53;;;;;;;;;;;;;;;22.48;51.15;94747.09;10455876;28;1980;-48
2022/09/15 06:34:53;;;;;;;;;;;;;;;22.49;51.18;94755.78;10447342;28;2061;-48
2022/09/15 06:39:53;;;;;;;;;;;;;;;22.49;51.05;94753.16;10450577;28;2018;-47
2022/09/15 06:44:53;;;;;;;;;;;;;;;22.50;50.88;94750.19;10443691;28;1998;-48
2022/09/15 06:49:54;;;;;;;;;;;;;;;22.51;50.85;94758.91;10451216;28;2039;-47
2022/09/15 06:54:54;;;;;;;;;;;;;;;22.51;50.82;94774.75;10443409;28;2054;-47
2022/09/15 06:59:55;;;;;;;;;;;;;;;22.49;50.64;94777.72;10446493;28;2046;-47
2022/09/15 07:04:56;;;;;;;;;;;;;;;22.51;50.80;94780.03;10470133;28;2020;-47
2022/09/15 07:09:57;;;;;;;;;;;;;;;22.51;50.55;94777.41;10454480;28;2074;-48
2022/09/15 07:14:57;;;;;;;;;;;;;;;22.52;50.85;94781.59;10445476;28;2309;-48
2022/09/15 07:19:59;;;;;;;;;;;;;;;22.48;51.20;94776.13;10451048;28;2269;-48
2022/09/15 07:24:59;;;;;;;;;;;;;;;22.51;50.77;94796.66;10450940;28;2320;-48
2022/09/15 07:29:59;;;;;;;;;;;;;;;22.53;50.91;94780.50;10480882;28;2351;-48
2022/09/15 07:35:01;;;;;;;;;;;;;;;22.52;51.05;94777.06;10479380;28;2378;-48
2022/09/15 07:40:01;;;;;;;;;;;;;;;22.51;51.00;94780.81;10451726;28;2339;-48
2022/09/15 07:45:01;;;;;;;;;;;;;;;22.53;50.94;94785.78;10447405;28;2272;-48
2022/09/15 07:50:02;;;;;;;;;;;;;;;22.52;51.47;94792.16;10445383;28;2285;-48
2022/09/15 07:55:03;;;;;;;;;;;;;;;22.53;51.11;94786.56;10453429;28;2316;-48
2022/09/15 08:00:03;;;;;;;;;;;;;;;22.50;51.39;94781.88;10446856;28;2308;-48
2022/09/15 08:05:04;;;;;;;;;;;;;;;22.50;50.82;94784.53;10442813;28;2276;-48
2022/09/15 08:10:04;;;;;;;;;;;;;;;22.50;51.68;94779.25;10452543;28;2424;-48
2022/09/15 08:15:05;;;;;;;;;;;;;;;22.52;51.46;94787.63;10447804;28;2307;-48
2022/09/15 08:20:05;;;;;;;;;;;;;;;22.50;51.19;94789.81;10451349;28;2266;-48
2022/09/15 08:25:06;;;;;;;;;;;;;;;22.51;51.56;94785.31;10440859;28;2323;-47
2022/09/15 08:30:06;;;;;;;;;;;;;;;22.52;51.52;94782.34;10443137;28;2287;-48
2022/09/15 08:35:07;;;;;;;;;;;;;;;22.51;51.56;94786.09;10450172;28;2289;-48
2022/09/15 08:40:18;;;;;;;;;;;;;;;22.52;51.63;94782.34;10441167;28;2342;-48
2022/09/15 08:45:25;;;;;;;;;;;;;;;22.50;51.61;94787.16;10439687;28;2282;-48
2022/09/15 08:50:28;;;;;;;;;;;;;;;22.53;51.33;94789.22;10448093;28;2347;-48
2022/09/15 08:55:37;;;;;;;;;;;;;;;22.55;51.27;94781.75;10451527;28;2330;-47
2022/09/15 09:00:38;;;;;;;;;;;;;;;22.55;51.32;94781.75;10454783;28;2484;-48
2022/09/15 09:05:58;;;;;;;;;;;;;;;22.57;51.47;94766.38;10445781;28;2315;-48
2022/09/15 09:11:02;;;;;;;;;;;;;;;22.57;50.64;94760.31;10455669;28;2289;-48
2022/09/15 09:16:21;;;;;;;;;;;;;;;22.54;50.78;94785.50;10457117;28;2359;-47
2022/09/15 09:21:32;;;;;;;;;;;;;;;22.58;51.37;94780.41;10455841;28;2308;-47
2022/09/15 09:26:33;;;;;;;;;;;;;;;22.59;51.26;94776.66;10485941;28;2282;-49
2022/09/15 09:31:34;;;;;;;;;;;;;;;22.59;51.13;94774.78;10455973;28;2336;-48
2022/09/15 09:36:34;;;;;;;;;;;;;;;22.56;51.12;94772.75;10480857;28;2329;-48
2022/09/15 09:41:35;;;;;;;;;;;;;;;22.59;50.31;94772.16;10447443;28;2300;-48
2022/09/15 09:46:35;;;;;;;;;;;;;;;22.59;51.22;94763.44;10445713;28;2345;-48
2022/09/15 09:51:37;;;;;;;;;;;;;;;22.57;50.99;94765.59;10445334;28;2287;-48
2022/09/15 09:56:37;;;;;;;;;;;;;;;22.54;51.37;94753.81;10454492;28;2337;-48
2022/09/15 10:01:38;;;;;;;;;;;;;;;22.57;51.15;94752.38;10460258;28;2292;-48
2022/09/15 10:06:38;;;;;;;;;;;;;;;22.56;51.64;94751.63;10452176;28;2341;-49
2022/09/15 10:11:45;;;;;;;;;;;;;;;22.56;51.24;94753.50;10460660;28;2280;-48
2022/09/15 10:16:58;;;;;;;;;;;;;;;22.57;51.27;94747.09;10447937;28;2331;-48
2022/09/15 10:21:58;;;;;;;;;;;;;;;22.56;51.68;94740.28;10451290;28;2285;-48
2022/09/15 10:27:05;;;;;;;;;;;;;;;22.56;51.46;94740.28;10451307;28;2405;-48
2022/09/15 10:32:21;;;;;;;;;;;;;;;22.54;51.38;94732.69;10451806;28;2342;-48
2022/09/15 10:37:31;;;;;;;;;;;;;;;22.55;50.71;94731.56;10480346;28;2319;-48
2022/09/15 10:42:51;;;;;;;;;;;;;;;22.53;51.21;94754.88;10483718;28;2273;-48
2022/09/15 10:48:01;;;;;;;;;;;;;;;22.53;51.30;94752.22;10477571;28;2340;-48
2022/09/15 10:53:04;;;;;;;;;;;;;;;22.54;51.17;94758.31;10475612;28;2351;-49
2022/09/15 10:58:17;;;;;;;;;;;;;;;22.53;51.30;94752.22;10439432;28;2393;-48
2022/09/15 11:03:50;;;;;;;;;;;;;;;22.54;50.83;94751.16;10449165;28;2292;-48
2022/09/15 11:09:09;;;;;;;;;;;;;;;22.57;50.22;94741.81;10447594;28;2424;-47
2022/09/15 11:14:21;;;;;;;;;;;;;;;22.59;51.19;94751.03;10450263;28;2269;-48
2022/09/15 11:19:24;;;;;;;;;;;;;;;22.60;50.91;94744.66;10451368;28;2312;-48
2022/09/15 11:24:35;;;;;;;;;;;;;;;22.59;51.56;94743.09;10445937;28;2310;-44
2022/09/15 11:29:54;;;;;;;;;;;;;;;22.59;51.51;94735.19;10450296;28;2330;-40
2022/09/15 11:34:55;;;;;;;;;;;;;;;22.56;51.08;94733.13;10446603;28;2324;-41
2022/09/15 11:39:56;;;;;;;;;;;;;;;22.57;51.20;94731.25;10488063;28;2271;-41
2022/09/15 11:44:56;;;;;;;;;;;;;;;22.58;51.44;94738.13;10443378;28;2399;-41
2022/09/15 11:50:01;;;;;;;;;;;;;;;22.57;51.70;94745.25;10466549;28;2318;-41
2022/09/15 11:55:20;;;;;;;;;;;;;;;22.58;51.44;94736.28;10448971;28;2303;-41
2022/09/15 12:00:21;;;;;;;;;;;;;;;22.61;51.57;94737.50;10445282;28;2316;-48
2022/09/15 12:05:44;;;;;;;;;;;;;;;22.61;51.60;94745.44;10447848;28;2297;-48
2022/09/15 12:10:46;;;;;;;;;;;;;;;22.60;51.74;94741.25;10450747;28;2296;-49
2022/09/15 12:15:52;;;;;;;;;;;;;;;22.58;51.84;94735.50;10476545;28;2357;-49
2022/09/15 12:20:53;;;;;;;;;;;;;;;22.56;51.39;94749.00;10477938;28;2313;-48
2022/09/15 12:26:13;;;;;;;;;;;;;;;22.59;51.79;94742.31;10449425;28;2334;-48
2022/09/15 12:31:23;;;;;;;;;;;;;;;22.57;51.24;94747.09;10448378;28;2264;-49
2022/09/15 12:36:41;;;;;;;;;;;;;;;22.56;51.56;94756.13;10453831;28;2576;-49
2022/09/15 12:41:46;;;;;;;;;;;;;;;22.57;51.72;94758.44;10488753;28;2399;-49
2022/09/15 12:46:52;;;;;;;;;;;;;;;22.58;51.42;94753.97;10481440;28;2328;-49
2022/09/15 12:51:52;;;;;;;;;;;;;;;22.58;51.57;94752.13;10457748;28;2292;-48
2022/09/15 12:56:52;;;;;;;;;;;;;;;22.58;51.28;94741.56;10487046;28;2369;-48
2022/09/15 13:01:53;;;;;;;;;;;;;;;22.62;51.30;94745.13;10484206;28;2323;-48
2022/09/15 13:07:12;;;;;;;;;;;;;;;22.65;50.85;94733.16;10450025;28;2409;-49
2022/09/15 13:12:12;;;;;;;;;;;;;;;22.66;50.82;94734.72;10452171;28;2364;-48
2022/09/15 13:17:15;;;;;;;;;;;;;;;22.67;50.64;94735.50;10455028;28;2727;-48
2022/09/15 13:22:22;;;;;;;;;;;;;;;22.67;51.03;94730.22;10461262;28;2331;-48
2022/09/15 13:27:27;;;;;;;;;;;;;;;22.65;51.44;94718.09;10458229;28;2375;-48
2022/09/15 13:32:31;;;;;;;;;;;;;;;22.67;51.10;94719.66;10448324;28;2280;-48
2022/09/15 13:37:55;;;;;;;;;;;;;;;22.65;50.78;94701.44;10453221;28;2282;-48
2022/09/15 13:43:01;;;;;;;;;;;;;;;22.67;50.50;94707.19;10450995;28;2325;-48
2022/09/15 13:48:04;;;;;;;;;;;;;;;22.69;51.28;94709.56;10453529;28;2538;-48
2022/09/15 13:53:09;;;;;;;;;;;;;;;22.71;50.49;94710.03;10444812;28;2338;-48
2022/09/15 13:58:11;;;;;;;;;;;;;;;22.71;51.05;94715.31;10488634;28;2343;-49
2022/09/15 14:03:12;;;;;;;;;;;;;;;22.69;51.49;94720.13;10446799;28;2284;-48
2022/09/15 14:08:14;;;;;;;;;;;;;;;22.65;51.41;94728.66;10457491;28;2252;-48
2022/09/15 14:13:15;;;;;;;;;;;;;;;22.66;51.42;94724.16;10441735;28;2389;-48
2022/09/15 14:18:18;;;;;;;;;;;;;;;22.62;50.71;94716.09;10453461;28;2371;-49
2022/09/15 14:23:18;;;;;;;;;;;;;;;22.62;51.71;94721.38;10445378;28;2300;-41
2022/09/15 14:28:22;;;;;;;;;;;;;;;22.62;50.77;94739.06;10442187;28;2440;-41
2022/09/15 14:33:23;;;;;;;;;;;;;;;22.63;51.40;94759.09;10448641;28;2302;-41
2022/09/15 14:38:23;;;;;;;;;;;;;;;22.63;51.24;94754.59;10445969;28;2254;-41
2022/09/15 14:43:31;;;;;;;;;;;;;;;22.62;51.30;94753.06;10450273;28;2328;-41
2022/09/15 14:48:33;;;;;;;;;;;;;;;22.63;51.30;94761.75;10447843;28;2371;-41
2022/09/15 14:53:34;;;;;;;;;;;;;;;22.63;51.17;94782.88;10450490;28;2227;-41
2022/09/15 14:58:35;;;;;;;;;;;;;;;22.62;51.27;94819.09;10451873;28;2337;-41
2022/09/15 15:03:44;;;;;;;;;;;;;;;22.61;50.81;94816.75;10453743;28;2316;-42
2022/09/15 15:08:46;;;;;;;;;;;;;;;22.62;51.24;94824.38;10445660;28;2304;-41
2022/09/15 15:13:50;;;;;;;;;;;;;;;22.59;51.88;94830.25;10475527;28;2442;-42
2022/09/15 15:18:51;;;;;;;;;;;;;;;22.61;51.54;94830.72;10451914;28;2394;-41
2022/09/15 15:23:52;;;;;;;;;;;;;;;22.62;51.75;94824.38;10445224;28;2307;-41
2022/09/15 15:28:52;;;;;;;;;;;;;;;22.63;51.47;94827.78;10446631;28;2417;-41
2022/09/15 15:33:58;;;;;;;;;;;;;;;22.64;51.42;94834.63;10449929;28;2276;-40
2022/09/15 15:39:03;;;;;;;;;;;;;;;22.64;51.97;94845.97;10446483;28;2309;-41
2022/09/15 15:44:06;;;;;;;;;;;;;;;22.65;51.79;94844.09;10445593;28;2436;-43
2022/09/15 15:49:08;;;;;;;;;;;;;;;22.61;52.01;94854.50;10448820;28;2714;-41
2022/09/15 15:54:08;;;;;;;;;;;;;;;22.62;52.24;94850.00;10447794;28;2305;-40
2022/09/15 15:59:11;;;;;;;;;;;;;;;22.61;52.21;94846.59;10439077;28;2310;-47
2022/09/15 16:04:12;;;;;;;;;;;;;;;22.61;52.12;94849.22;10445909;28;2323;-48
2022/09/15 16:09:12;;;;;;;;;;;;;;;22.60;52.05;94845.03;10454472;28;2314;-47
2022/09/15 16:14:18;;;;;;;;;;;;;;;22.62;52.37;94866.66;10453829;28;2247;-41
2022/09/15 16:19:18;;;;;;;;;;;;;;;22.63;52.29;94870.81;10461547;28;2250;-48
2022/09/15 16:24:18;;;;;;;;;;;;;;;22.67;52.36;94898.19;10457427;28;2389;-47
2022/09/15 16:29:21;;;;;;;;;;;;;;;22.77;51.80;94899.00;10459033;28;2256;-47
2022/09/15 16:34:21;;;;;;;;;;;;;;;22.74;51.90;94907.53;10462466;28;2335;-47
2022/09/15 16:39:22;;;;;;;;;;;;;;;22.71;52.41;94916.09;10461143;28;2384;-47
2022/09/15 16:44:22;;;;;;;;;;;;;;;22.71;52.15;94924.00;10466718;28;2397;-48
2022/09/15 16:49:22;;;;;;;;;;;;;;;22.71;52.41;94932.69;10458941;28;2281;-48
2022/09/15 16:54:23;;;;;;;;;;;;;;;22.73;52.26;94941.09;10459304;28;2365;-47
2022/09/15 16:59:23;;;;;;;;;;;;;;;22.75;51.99;94952.13;10459455;28;2384;-48
2022/09/15 17:04:23;;;;;;;;;;;;;;;22.76;52.03;94956.34;10457264;28;2402;-48
2022/09/15 17:09:24;;;;;;;;;;;;;;;22.77;52.08;94965.84;10460365;28;2330;-47
2022/09/15 17:14:24;;;;;;;;;;;;;;;22.78;51.99;94977.16;10458160;28;2395;-47
2022/09/15 17:19:24;;;;;;;;;;;;;;;22.81;52.05;94987.91;10462928;28;2253;-40
2022/09/15 17:24:25;;;;;;;;;;;;;;;22.79;51.78;94992.72;10456725;28;2378;-40
2022/09/15 17:29:25;;;;;;;;;;;;;;;22.80;52.20;94998.78;10453104;28;2368;-41
2022/09/15 17:34:26;;;;;;;;;;;;;;;22.83;51.69;94995.53;10448199;28;2281;-41
2022/09/15 17:39:29;;;;;;;;;;;;;;;22.85;51.79;95006.56;10452991;28;2329;-40
2022/09/15 17:44:29;;;;;;;;;;;;;;;22.86;51.89;95005.47;10444597;28;2386;-40
2022/09/15 17:49:29;;;;;;;;;;;;;;;22.88;51.58;95014.66;10444966;28;2306;-40
2022/09/15 17:54:31;;;;;;;;;;;;;;;22.88;51.71;95019.94;10455176;28;2368;-42
2022/09/15 17:59:31;;;;;;;;;;;;;;;22.86;51.29;95029.25;10459302;28;2274;-40
2022/09/15 18:04:32;;;;;;;;;;;;;;;22.85;51.46;95027.72;10442846;28;2336;-41
2022/09/15 18:09:32;;;;;;;;;;;;;;;22.85;51.33;95031.16;10454056;28;2326;-41
2022/09/15 18:14:32;;;;;;;;;;;;;;;22.84;51.29;95040.16;10449012;28;2310;-40
2022/09/15 18:19:33;;;;;;;;;;;;;;;22.84;51.14;95034.84;10455213;28;2278;-41
2022/09/15 18:24:33;;;;;;;;;;;;;;;22.85;50.92;95040.94;10457676;28;2371;-44
2022/09/15 18:29:33;;;;;;;;;;;;;;;22.84;51.10;95053.34;10457089;28;2252;-39
2022/09/15 18:34:34;;;;;;;;;;;;;;;22.83;51.17;95051.03;10459356;28;2300;-40
2022/09/15 18:39:36;;;;;;;;;;;;;;;22.85;51.10;95056.78;10456716;28;2343;-41
2022/09/15 18:44:36;;;;;;;;;;;;;;;22.86;50.95;95064.41;10455391;28;2459;-41
2022/09/15 18:49:36;;;;;;;;;;;;;;;22.86;51.00;95066.25;10463435;28;2412;-41
2022/09/15 18:54:36;;;;;;;;;;;;;;;22.86;51.01;95080.25;10453254;28;2523;-41
2022/09/15 18:59:37;;;;;;;;;;;;;;;22.86;50.95;95076.81;10462347;28;2329;-49
2022/09/15 19:04:38;;;;;;;;;;;;;;;22.86;51.15;95080.25;10461567;28;2323;-48
2022/09/15 19:09:38;;;;;;;;;;;;;;;22.86;50.74;95090.03;10461145;28;2364;-49
2022/09/15 19:14:38;;;;;;;;;;;;;;;22.86;50.74;95097.97;10466958;28;2409;-48
2022/09/15 19:19:39;;;;;;;;;;;;;;;22.85;50.72;95096.44;10466011;28;2340;-49
2022/09/15 19:24:39;;;;;;;;;;;;;;;22.85;51.04;95113.06;10459871;28;2359;-49
2022/09/15 19:29:40;;;;;;;;;;;;;;;22.84;50.82;95114.13;10461442;28;2308;-40
2022/09/15 19:34:43;;;;;;;;;;;;;;;22.86;50.79;95105.91;10460567;28;2314;-48
2022/09/15 19:39:44;;;;;;;;;;;;;;;22.88;50.88;95101.09;10462063;28;2336;-48
2022/09/15 19:44:44;;;;;;;;;;;;;;;22.89;51.16;95097.38;10461892;28;2327;-48
2022/09/15 19:49:45;;;;;;;;;;;;;;;22.90;51.19;95105.00;10470710;28;2328;-48
2022/09/15 19:54:46;;;;;;;;;;;;;;;22.88;51.43;95117.72;10458805;28;2304;-48
2022/09/15 19:59:48;;;;;;;;;;;;;;;22.88;50.88;95127.50;10441264;28;2354;-48
2022/09/15 20:04:49;;;;;;;;;;;;;;;22.87;51.50;95126.75;10453705;28;2417;-47
2022/09/15 20:09:52;;;;;;;;;;;;;;;22.86;51.29;95129.69;10456247;28;2533;-48
2022/09/15 20:14:52;;;;;;;;;;;;;;;22.84;51.24;95142.41;10445622;28;2345;-48
2022/09/15 20:19:53;;;;;;;;;;;;;;;22.80;51.21;95141.47;10447309;28;2336;-48
2022/09/15 20:24:54;;;;;;;;;;;;;;;22.79;51.51;95134.63;10448260;28;2300;-48
2022/09/15 20:29:56;;;;;;;;;;;;;;;22.79;51.25;95134.63;10454720;28;2339;-47
2022/09/15 20:34:57;;;;;;;;;;;;;;;22.75;51.05;95134.44;10456949;28;2460;-48
2022/09/15 20:39:57;;;;;;;;;;;;;;;22.76;51.22;95145.78;10456013;28;2306;-48
2022/09/15 20:44:57;;;;;;;;;;;;;;;22.77;51.36;95147.38;10455810;28;2388;-48
2022/09/15 20:49:59;;;;;;;;;;;;;;;22.77;51.14;95148.16;10460133;28;2215;-48
2022/09/15 20:54:59;;;;;;;;;;;;;;;22.75;51.35;95152.94;10455742;28;2356;-47
2022/09/15 21:00:00;;;;;;;;;;;;;;;22.75;51.14;95152.94;10467834;28;2366;-48
2022/09/15 21:05:00;;;;;;;;;;;;;;;22.77;51.16;95163.22;10456019;28;2351;-47
2022/09/15 21:10:01;;;;;;;;;;;;;;;22.75;51.24;95152.16;10459547;28;2484;-48
2022/09/15 21:15:02;;;;;;;;;;;;;;;22.75;51.02;95158.22;10460795;28;2291;-48
2022/09/15 21:20:02;;;;;;;;;;;;;;;22.75;51.22;95168.03;10463618;28;2358;-48
2022/09/15 21:25:03;;;;;;;;;;;;;;;22.74;51.33;95167.22;10461140;28;2343;-47
2022/09/15 21:30:03;;;;;;;;;;;;;;;22.73;51.10;95168.31;10463265;28;2339;-48
2022/09/15 21:35:04;;;;;;;;;;;;;;;22.72;51.04;95158.81;10469301;28;2407;-47
2022/09/15 21:40:05;;;;;;;;;;;;;;;22.72;51.31;95165.97;10461624;28;2335;-48
2022/09/15 21:45:06;;;;;;;;;;;;;;;22.73;51.10;95163.03;10446781;28;2337;-48
2022/09/15 21:50:07;;;;;;;;;;;;;;;22.72;50.96;95176.53;10459804;28;2396;-48
2022/09/15 21:55:07;;;;;;;;;;;;;;;22.72;50.94;95165.97;10459578;28;2281;-47
2022/09/15 22:00:08;;;;;;;;;;;;;;;22.73;50.96;95162.25;10457944;28;2384;-48
2022/09/15 22:05:08;;;;;;;;;;;;;;;22.72;51.01;95160.69;10456846;28;2366;-47
2022/09/15 22:10:08;;;;;;;;;;;;;;;22.73;51.37;95172.81;10457297;28;2282;-48
2022/09/15 22:15:09;;;;;;;;;;;;;;;22.72;51.19;95166.75;10458992;28;2288;-48
2022/09/15 22:20:09;;;;;;;;;;;;;;;22.73;51.08;95164.91;10456533;28;2281;-48
2022/09/15 22:25:17;;;;;;;;;;;;;;;22.72;50.87;95161.47;10454492;28;2312;-48
2022/09/15 22:30:17;;;;;;;;;;;;;;;22.71;50.97;95154.63;10455110;28;2325;-48
2022/09/15 22:35:17;;;;;;;;;;;;;;;22.72;51.06;95158.03;10460841;28;2311;-48
2022/09/15 22:40:18;;;;;;;;;;;;;;;22.72;51.18;95150.13;10453255;28;2285;-48
2022/09/15 22:45:18;;;;;;;;;;;;;;;22.72;50.96;95153.53;10453981;28;2397;-48
2022/09/15 22:50:21;;;;;;;;;;;;;;;22.69;51.15;95142.81;10465652;28;2282;-48
2022/09/15 22:55:21;;;;;;;;;;;;;;;22.70;51.20;95147.78;10447642;28;2313;-48
2022/09/15 23:00:22;;;;;;;;;;;;;;;22.70;50.95;95145.13;10456182;28;2378;-48
2022/09/15 23:05:24;;;;;;;;;;;;;;;22.70;51.05;95141.72;10447712;28;2326;-48
2022/09/15 23:10:25;;;;;;;;;;;;;;;22.70;50.86;95133.78;10454694;28;2414;-48
2022/09/15 23:15:27;;;;;;;;;;;;;;;22.68;50.86;95123.53;10458730;28;2374;-48
2022/09/15 23:20:27;;;;;;;;;;;;;;;22.68;51.15;95128.81;10455072;28;2276;-48
2022/09/15 23:25:28;;;;;;;;;;;;;;;22.67;50.84;95119.31;10446208;28;2490;-48
2022/09/15 23:30:28;;;;;;;;;;;;;;;22.67;50.80;95128.03;10452297;28;2268;-48
2022/09/15 23:35:28;;;;;;;;;;;;;;;22.66;51.03;95125.69;10454969;28;2372;-47
2022/09/15 23:40:31;;;;;;;;;;;;;;;22.67;50.69;95107.97;10454276;28;2319;-47
2022/09/15 23:45:32;;;;;;;;;;;;;;;22.65;50.89;95109.06;10449513;28;2352;-46
2022/09/15 23:50:32;;;;;;;;;;;;;;;22.65;50.75;95095.06;10453154;28;2357;-47
2022/09/15 23:55:32;;;;;;;;;;;;;;;22.65;50.94;95109.06;10439150;28;2322;-47
